sensor_id;sensor_type;location;lat;lon;timestamp;P1;durP1;ratioP1;P2;durP2;ratioP2
37379;SDS011;23252;-33.992;18.480;2023-02-01T04:45:35;17.42;;;3.25;;
37379;SDS011;23252;-33.992;18.480;2023-02-01T04:48:02;16.10;;;2.78;;
37379;SDS011;23252;-33.992;18.480;2023-02-01T04:50:28;16.13;;;2.80;;
37379;SDS011;23252;-33.992;18.480;2023-02-01T04:52:55;16.17;;;3.20;;
37379;SDS011;23252;-33.992;18.480;2023-02-01T04:55:21;16.70;;;2.00;;
37379;SDS011;23252;-33.992;18.480;2023-02-01T04:57:48;13.75;;;1.95;;
37379;SDS011;23252;-33.992;18.480;2023-02-01T05:00:15;11.70;;;2.33;;
37379;SDS011;23252;-33.992;18.480;2023-02-01T05:02:41;20.73;;;2.60;;
37379;SDS011;23252;-33.992;18.480;2023-02-01T05:05:08;20.42;;;3.17;;
37379;SDS011;23252;-33.992;18.480;2023-02-01T05:07:34;13.95;;;2.35;;
37379;SDS011;23252;-33.992;18.480;2023-02-01T05:10:01;17.95;;;3.30;;
37379;SDS011;23252;-33.992;18.480;2023-02-01T05:12:30;16.83;;;3.15;;
37379;SDS011;23252;-33.992;18.480;2023-02-01T05:15:15;20.43;;;3.27;;
37379;SDS011;23252;-33.992;18.480;2023-02-01T05:17:41;15.02;;;2.10;;
37379;SDS011;23252;-33.992;18.480;2023-02-01T05:20:08;16.98;;;2.58;;
37379;SDS011;23252;-33.992;18.480;2023-02-01T05:22:35;14.48;;;2.10;;
37379;SDS011;23252;-33.992;18.480;2023-02-01T05:25:01;12.63;;;2.20;;
37379;SDS011;23252;-33.992;18.480;2023-02-01T05:27:29;17.05;;;2.03;;
37379;SDS011;23252;-33.992;18.480;2023-02-01T05:29:56;16.02;;;2.42;;
37379;SDS011;23252;-33.992;18.480;2023-02-01T05:32:22;22.00;;;2.85;;
37379;SDS011;23252;-33.992;18.480;2023-02-01T05:34:49;15.23;;;2.73;;
37379;SDS011;23252;-33.992;18.480;2023-02-01T05:37:15;16.83;;;2.90;;
37379;SDS011;23252;-33.992;18.480;2023-02-01T05:39:42;15.07;;;2.50;;
37379;SDS011;23252;-33.992;18.480;2023-02-01T05:42:12;13.57;;;1.90;;
37379;SDS011;23252;-33.992;18.480;2023-02-01T05:44:39;10.00;;;2.35;;
37379;SDS011;23252;-33.992;18.480;2023-02-01T05:47:05;20.35;;;2.88;;
37379;SDS011;23252;-33.992;18.480;2023-02-01T05:49:32;13.27;;;2.30;;
37379;SDS011;23252;-33.992;18.480;2023-02-01T05:51:59;16.10;;;2.53;;
37379;SDS011;23252;-33.992;18.480;2023-02-01T05:54:25;19.65;;;2.40;;
37379;SDS011;23252;-33.992;18.480;2023-02-01T05:56:52;25.20;;;2.53;;
37379;SDS011;23252;-33.992;18.480;2023-02-01T05:59:19;23.17;;;3.45;;
37379;SDS011;23252;-33.992;18.480;2023-02-01T06:01:45;11.80;;;2.35;;
37379;SDS011;23252;-33.992;18.480;2023-02-01T06:04:12;14.90;;;2.47;;
37379;SDS011;23252;-33.992;18.480;2023-02-01T06:06:38;9.60;;;1.77;;
37379;SDS011;23252;-33.992;18.480;2023-02-01T06:09:05;12.43;;;2.15;;
37379;SDS011;23252;-33.992;18.480;2023-02-01T06:11:31;15.68;;;2.72;;
37379;SDS011;23252;-33.992;18.480;2023-02-01T06:13:58;13.25;;;2.17;;
37379;SDS011;23252;-33.992;18.480;2023-02-01T06:16:25;14.52;;;2.50;;
37379;SDS011;23252;-33.992;18.480;2023-02-01T06:18:52;16.33;;;3.45;;
37379;SDS011;23252;-33.992;18.480;2023-02-01T06:21:19;13.02;;;2.10;;
37379;SDS011;23252;-33.992;18.480;2023-02-01T06:23:49;14.15;;;2.38;;
37379;SDS011;23252;-33.992;18.480;2023-02-01T06:26:16;14.00;;;2.30;;
37379;SDS011;23252;-33.992;18.480;2023-02-01T06:28:43;13.70;;;3.22;;
37379;SDS011;23252;-33.992;18.480;2023-02-01T06:31:09;15.82;;;2.28;;
37379;SDS011;23252;-33.992;18.480;2023-02-01T06:33:37;13.55;;;2.58;;
37379;SDS011;23252;-33.992;18.480;2023-02-01T06:36:05;14.85;;;2.78;;
37379;SDS011;23252;-33.992;18.480;2023-02-01T06:38:32;17.52;;;2.47;;
37379;SDS011;23252;-33.992;18.480;2023-02-01T06:41:00;14.93;;;2.60;;
37379;SDS011;23252;-33.992;18.480;2023-02-01T06:43:27;14.73;;;2.25;;
37379;SDS011;23252;-33.992;18.480;2023-02-01T06:45:58;12.77;;;2.33;;
37379;SDS011;23252;-33.992;18.480;2023-02-01T06:48:26;15.98;;;2.13;;
37379;SDS011;23252;-33.992;18.480;2023-02-01T06:50:53;10.23;;;2.47;;
37379;SDS011;23252;-33.992;18.480;2023-02-01T06:53:19;20.17;;;2.15;;
37379;SDS011;23252;-33.992;18.480;2023-02-01T06:55:56;17.33;;;2.33;;
37379;SDS011;23252;-33.992;18.480;2023-02-01T06:58:28;12.35;;;1.73;;
37379;SDS011;23252;-33.992;18.480;2023-02-01T07:00:56;10.75;;;1.80;;
37379;SDS011;23252;-33.992;18.480;2023-02-01T07:03:23;15.02;;;2.15;;
37379;SDS011;23252;-33.992;18.480;2023-02-01T07:05:49;12.00;;;1.48;;
37379;SDS011;23252;-33.992;18.480;2023-02-01T07:08:20;11.82;;;1.45;;
37379;SDS011;23252;-33.992;18.480;2023-02-01T07:10:46;14.52;;;2.10;;
37379;SDS011;23252;-33.992;18.480;2023-02-01T07:13:13;11.68;;;2.00;;
37379;SDS011;23252;-33.992;18.480;2023-02-01T07:15:39;10.70;;;1.83;;
37379;SDS011;23252;-33.992;18.480;2023-02-01T07:18:06;15.27;;;2.08;;
37379;SDS011;23252;-33.992;18.480;2023-02-01T07:20:32;14.75;;;2.25;;
37379;SDS011;23252;-33.992;18.480;2023-02-01T07:22:59;9.23;;;1.55;;
37379;SDS011;23252;-33.992;18.480;2023-02-01T07:25:25;13.40;;;2.10;;
37379;SDS011;23252;-33.992;18.480;2023-02-01T07:27:52;16.65;;;2.22;;
37379;SDS011;23252;-33.992;18.480;2023-02-01T07:30:18;13.18;;;1.83;;
37379;SDS011;23252;-33.992;18.480;2023-02-01T07:32:45;16.55;;;2.50;;
37379;SDS011;23252;-33.992;18.480;2023-02-01T07:35:11;18.55;;;8.30;;
37379;SDS011;23252;-33.992;18.480;2023-02-01T07:37:39;14.23;;;3.70;;
37379;SDS011;23252;-33.992;18.480;2023-02-01T07:40:06;11.02;;;1.73;;
37379;SDS011;23252;-33.992;18.480;2023-02-01T07:42:33;8.40;;;1.65;;
37379;SDS011;23252;-33.992;18.480;2023-02-01T07:45:00;11.02;;;1.50;;
37379;SDS011;23252;-33.992;18.480;2023-02-01T07:47:28;11.15;;;2.03;;
37379;SDS011;23252;-33.992;18.480;2023-02-01T07:49:54;12.30;;;1.88;;
37379;SDS011;23252;-33.992;18.480;2023-02-01T07:52:21;9.90;;;1.15;;
37379;SDS011;23252;-33.992;18.480;2023-02-01T07:54:47;14.40;;;2.00;;
37379;SDS011;23252;-33.992;18.480;2023-02-01T07:57:13;13.02;;;1.35;;
37379;SDS011;23252;-33.992;18.480;2023-02-01T07:59:40;11.57;;;2.25;;
37379;SDS011;23252;-33.992;18.480;2023-02-01T08:02:26;9.85;;;1.35;;
37379;SDS011;23252;-33.992;18.480;2023-02-01T08:04:53;9.98;;;1.60;;
37379;SDS011;23252;-33.992;18.480;2023-02-01T08:07:19;8.93;;;1.60;;
37379;SDS011;23252;-33.992;18.480;2023-02-01T08:09:47;11.43;;;1.70;;
37379;SDS011;23252;-33.992;18.480;2023-02-01T08:12:13;9.10;;;1.55;;
37379;SDS011;23252;-33.992;18.480;2023-02-01T08:14:40;10.18;;;2.08;;
37379;SDS011;23252;-33.992;18.480;2023-02-01T08:17:06;12.25;;;1.60;;
37379;SDS011;23252;-33.992;18.480;2023-02-01T08:19:33;9.07;;;1.73;;
37379;SDS011;23252;-33.992;18.480;2023-02-01T08:21:59;8.07;;;1.10;;
37379;SDS011;23252;-33.992;18.480;2023-02-01T08:24:31;9.80;;;1.30;;
37379;SDS011;23252;-33.992;18.480;2023-02-01T08:27:00;5.72;;;1.10;;
37379;SDS011;23252;-33.992;18.480;2023-02-01T08:29:27;7.97;;;1.50;;
37379;SDS011;23252;-33.992;18.480;2023-02-01T08:31:54;8.77;;;1.30;;
37379;SDS011;23252;-33.992;18.480;2023-02-01T08:34:20;11.00;;;1.55;;
37379;SDS011;23252;-33.992;18.480;2023-02-01T08:36:47;6.93;;;1.20;;
37379;SDS011;23252;-33.992;18.480;2023-02-01T08:39:14;9.88;;;1.40;;
37379;SDS011;23252;-33.992;18.480;2023-02-01T08:41:40;8.40;;;1.30;;
37379;SDS011;23252;-33.992;18.480;2023-02-01T08:44:27;8.10;;;1.33;;
37379;SDS011;23252;-33.992;18.480;2023-02-01T08:46:53;6.25;;;1.27;;
37379;SDS011;23252;-33.992;18.480;2023-02-01T08:49:20;8.20;;;1.33;;
37379;SDS011;23252;-33.992;18.480;2023-02-01T08:51:46;7.43;;;1.65;;
37379;SDS011;23252;-33.992;18.480;2023-02-01T08:54:13;7.07;;;1.33;;
37379;SDS011;23252;-33.992;18.480;2023-02-01T08:56:39;6.85;;;1.60;;
37379;SDS011;23252;-33.992;18.480;2023-02-01T08:59:06;10.20;;;1.70;;
37379;SDS011;23252;-33.992;18.480;2023-02-01T09:01:32;15.45;;;1.95;;
37379;SDS011;23252;-33.992;18.480;2023-02-01T09:03:58;7.88;;;1.55;;
37379;SDS011;23252;-33.992;18.480;2023-02-01T09:06:25;9.18;;;1.55;;
37379;SDS011;23252;-33.992;18.480;2023-02-01T09:08:51;4.55;;;1.20;;
37379;SDS011;23252;-33.992;18.480;2023-02-01T09:11:18;6.90;;;1.45;;
37379;SDS011;23252;-33.992;18.480;2023-02-01T09:13:45;7.25;;;1.58;;
37379;SDS011;23252;-33.992;18.480;2023-02-01T09:18:38;6.70;;;1.35;;
37379;SDS011;23252;-33.992;18.480;2023-02-01T09:21:05;9.05;;;1.30;;
37379;SDS011;23252;-33.992;18.480;2023-02-01T09:23:32;5.50;;;1.27;;
37379;SDS011;23252;-33.992;18.480;2023-02-01T09:28:26;7.10;;;1.00;;
37379;SDS011;23252;-33.992;18.480;2023-02-01T09:30:59;4.65;;;0.77;;
37379;SDS011;23252;-33.992;18.480;2023-02-01T09:33:27;9.07;;;1.00;;
37379;SDS011;23252;-33.992;18.480;2023-02-01T09:35:57;7.38;;;1.23;;
37379;SDS011;23252;-33.992;18.480;2023-02-01T09:38:25;6.40;;;1.27;;
37379;SDS011;23252;-33.992;18.480;2023-02-01T09:40:53;8.98;;;1.35;;
37379;SDS011;23252;-33.992;18.480;2023-02-01T09:43:27;9.02;;;1.42;;
37379;SDS011;23252;-33.992;18.480;2023-02-01T09:46:38;7.78;;;1.38;;
37379;SDS011;23252;-33.992;18.480;2023-02-01T09:49:08;6.22;;;1.40;;
37379;SDS011;23252;-33.992;18.480;2023-02-01T09:51:46;6.78;;;1.33;;
37379;SDS011;23252;-33.992;18.480;2023-02-01T09:54:16;11.63;;;1.13;;
37379;SDS011;23252;-33.992;18.480;2023-02-01T09:56:56;6.93;;;1.27;;
37379;SDS011;23252;-33.992;18.480;2023-02-01T09:59:34;7.15;;;1.27;;
37379;SDS011;23252;-33.992;18.480;2023-02-01T10:02:14;11.98;;;1.42;;
37379;SDS011;23252;-33.992;18.480;2023-02-01T12:23:59;5.35;;;0.75;;
37379;SDS011;23252;-33.992;18.480;2023-02-01T12:29:47;5.22;;;0.95;;
37379;SDS011;23252;-33.992;18.480;2023-02-01T12:42:29;5.00;;;1.15;;
37379;SDS011;23252;-33.992;18.480;2023-02-01T12:47:57;4.00;;;0.80;;
37379;SDS011;23252;-33.992;18.480;2023-02-01T12:50:54;5.15;;;1.00;;
37379;SDS011;23252;-33.992;18.480;2023-02-01T12:53:23;3.75;;;0.93;;
37379;SDS011;23252;-33.992;18.480;2023-02-01T12:55:57;6.35;;;0.70;;
37379;SDS011;23252;-33.992;18.480;2023-02-01T13:01:17;7.28;;;1.30;;
37379;SDS011;23252;-33.992;18.480;2023-02-01T13:03:57;7.43;;;1.63;;
37379;SDS011;23252;-33.992;18.480;2023-02-01T13:06:34;7.28;;;1.35;;
37379;SDS011;23252;-33.992;18.480;2023-02-01T13:09:06;7.82;;;1.13;;
37379;SDS011;23252;-33.992;18.480;2023-02-01T13:11:46;7.05;;;1.48;;
37379;SDS011;23252;-33.992;18.480;2023-02-01T13:14:36;6.22;;;0.93;;
37379;SDS011;23252;-33.992;18.480;2023-02-01T13:17:16;10.40;;;1.15;;
37379;SDS011;23252;-33.992;18.480;2023-02-01T13:22:30;4.90;;;1.05;;
37379;SDS011;23252;-33.992;18.480;2023-02-01T13:27:53;4.85;;;0.82;;
37379;SDS011;23252;-33.992;18.480;2023-02-01T13:30:28;6.82;;;1.00;;
37379;SDS011;23252;-33.992;18.480;2023-02-01T13:33:19;7.72;;;1.30;;
37379;SDS011;23252;-33.992;18.480;2023-02-01T13:41:29;4.90;;;0.82;;
37379;SDS011;23252;-33.992;18.480;2023-02-01T13:44:03;8.13;;;1.30;;
37379;SDS011;23252;-33.992;18.480;2023-02-01T13:46:41;6.28;;;1.30;;
37379;SDS011;23252;-33.992;18.480;2023-02-01T13:49:17;5.57;;;0.88;;
37379;SDS011;23252;-33.992;18.480;2023-02-01T13:51:52;4.55;;;0.70;;
37379;SDS011;23252;-33.992;18.480;2023-02-01T13:56:59;2.35;;;0.50;;
37379;SDS011;23252;-33.992;18.480;2023-02-01T14:05:09;4.63;;;0.57;;
37379;SDS011;23252;-33.992;18.480;2023-02-01T14:08:01;3.53;;;0.65;;
37379;SDS011;23252;-33.992;18.480;2023-02-01T14:13:31;4.95;;;0.98;;
37379;SDS011;23252;-33.992;18.480;2023-02-01T14:29:02;5.43;;;1.27;;
37379;SDS011;23252;-33.992;18.480;2023-02-01T14:31:31;4.57;;;1.08;;
37379;SDS011;23252;-33.992;18.480;2023-02-01T14:33:58;10.60;;;1.60;;
37379;SDS011;23252;-33.992;18.480;2023-02-01T14:36:49;3.97;;;1.08;;
37379;SDS011;23252;-33.992;18.480;2023-02-01T14:39:30;5.53;;;0.90;;
37379;SDS011;23252;-33.992;18.480;2023-02-01T14:55:42;9.25;;;1.90;;
37379;SDS011;23252;-33.992;18.480;2023-02-01T15:01:13;6.85;;;0.82;;
37379;SDS011;23252;-33.992;18.480;2023-02-01T15:06:31;3.60;;;0.80;;
37379;SDS011;23252;-33.992;18.480;2023-02-01T15:09:24;5.82;;;1.15;;
37379;SDS011;23252;-33.992;18.480;2023-02-01T15:11:59;6.30;;;1.00;;
37379;SDS011;23252;-33.992;18.480;2023-02-01T15:14:41;2.97;;;0.68;;
37379;SDS011;23252;-33.992;18.480;2023-02-01T15:17:18;4.47;;;0.85;;
37379;SDS011;23252;-33.992;18.480;2023-02-01T15:19:57;7.05;;;1.10;;
37379;SDS011;23252;-33.992;18.480;2023-02-01T15:22:30;7.97;;;1.30;;
37379;SDS011;23252;-33.992;18.480;2023-02-01T15:24:58;6.88;;;1.17;;
37379;SDS011;23252;-33.992;18.480;2023-02-01T15:27:25;6.00;;;0.98;;
37379;SDS011;23252;-33.992;18.480;2023-02-01T15:29:53;5.63;;;1.15;;
37379;SDS011;23252;-33.992;18.480;2023-02-01T15:32:30;4.85;;;1.50;;
37379;SDS011;23252;-33.992;18.480;2023-02-01T15:34:59;4.45;;;1.00;;
37379;SDS011;23252;-33.992;18.480;2023-02-01T15:42:54;4.50;;;0.88;;
37379;SDS011;23252;-33.992;18.480;2023-02-01T15:45:25;5.20;;;1.10;;
37379;SDS011;23252;-33.992;18.480;2023-02-01T15:47:55;8.30;;;1.20;;
37379;SDS011;23252;-33.992;18.480;2023-02-01T15:50:23;5.03;;;1.10;;
37379;SDS011;23252;-33.992;18.480;2023-02-01T15:52:52;5.43;;;1.10;;
37379;SDS011;23252;-33.992;18.480;2023-02-01T15:57:55;5.38;;;1.02;;
37379;SDS011;23252;-33.992;18.480;2023-02-01T16:00:23;7.50;;;1.27;;
37379;SDS011;23252;-33.992;18.480;2023-02-01T16:02:59;5.72;;;0.70;;
37379;SDS011;23252;-33.992;18.480;2023-02-01T16:10:44;2.17;;;0.80;;
37379;SDS011;23252;-33.992;18.480;2023-02-01T16:15:48;5.90;;;0.80;;
37379;SDS011;23252;-33.992;18.480;2023-02-01T16:18:15;5.35;;;0.90;;
37379;SDS011;23252;-33.992;18.480;2023-02-01T16:20:41;5.43;;;1.30;;
37379;SDS011;23252;-33.992;18.480;2023-02-01T16:23:09;4.97;;;1.00;;
37379;SDS011;23252;-33.992;18.480;2023-02-01T16:25:36;12.13;;;1.38;;
37379;SDS011;23252;-33.992;18.480;2023-02-01T16:28:03;12.00;;;1.55;;
37379;SDS011;23252;-33.992;18.480;2023-02-01T16:30:30;9.13;;;1.30;;
37379;SDS011;23252;-33.992;18.480;2023-02-01T16:32:58;7.82;;;1.33;;
37379;SDS011;23252;-33.992;18.480;2023-02-01T16:35:34;6.63;;;1.40;;
37379;SDS011;23252;-33.992;18.480;2023-02-01T16:38:03;8.27;;;1.17;;
37379;SDS011;23252;-33.992;18.480;2023-02-01T16:40:37;11.18;;;1.88;;
37379;SDS011;23252;-33.992;18.480;2023-02-01T16:45:36;10.43;;;1.30;;
37379;SDS011;23252;-33.992;18.480;2023-02-01T16:48:05;5.55;;;1.17;;
37379;SDS011;23252;-33.992;18.480;2023-02-01T16:50:32;6.60;;;1.35;;
37379;SDS011;23252;-33.992;18.480;2023-02-01T16:52:59;11.10;;;1.77;;
37379;SDS011;23252;-33.992;18.480;2023-02-01T16:55:27;9.45;;;2.08;;
37379;SDS011;23252;-33.992;18.480;2023-02-01T16:57:54;6.97;;;1.60;;
37379;SDS011;23252;-33.992;18.480;2023-02-01T17:00:23;8.77;;;1.45;;
37379;SDS011;23252;-33.992;18.480;2023-02-01T17:02:52;10.38;;;1.83;;
37379;SDS011;23252;-33.992;18.480;2023-02-01T17:05:18;9.13;;;1.90;;
37379;SDS011;23252;-33.992;18.480;2023-02-01T17:07:45;8.23;;;1.85;;
37379;SDS011;23252;-33.992;18.480;2023-02-01T17:10:21;12.70;;;2.97;;
37379;SDS011;23252;-33.992;18.480;2023-02-01T17:12:50;6.85;;;2.33;;
37379;SDS011;23252;-33.992;18.480;2023-02-01T17:15:17;10.90;;;2.53;;
37379;SDS011;23252;-33.992;18.480;2023-02-01T17:17:43;9.30;;;1.92;;
37379;SDS011;23252;-33.992;18.480;2023-02-01T17:20:20;7.78;;;1.95;;
37379;SDS011;23252;-33.992;18.480;2023-02-01T17:22:48;9.45;;;2.20;;
37379;SDS011;23252;-33.992;18.480;2023-02-01T17:25:17;7.93;;;1.77;;
37379;SDS011;23252;-33.992;18.480;2023-02-01T17:27:45;10.93;;;1.90;;
37379;SDS011;23252;-33.992;18.480;2023-02-01T17:32:39;9.43;;;2.55;;
37379;SDS011;23252;-33.992;18.480;2023-02-01T17:35:09;10.73;;;2.33;;
37379;SDS011;23252;-33.992;18.480;2023-02-01T17:37:47;14.48;;;2.20;;
37379;SDS011;23252;-33.992;18.480;2023-02-01T17:40:14;13.38;;;1.85;;
37379;SDS011;23252;-33.992;18.480;2023-02-01T17:45:15;13.30;;;2.40;;
37379;SDS011;23252;-33.992;18.480;2023-02-01T17:47:42;14.95;;;3.13;;
37379;SDS011;23252;-33.992;18.480;2023-02-01T17:50:09;15.30;;;4.20;;
37379;SDS011;23252;-33.992;18.480;2023-02-01T17:55:07;16.08;;;4.72;;
37379;SDS011;23252;-33.992;18.480;2023-02-01T17:57:41;16.17;;;3.90;;
37379;SDS011;23252;-33.992;18.480;2023-02-01T18:00:08;13.63;;;2.75;;
37379;SDS011;23252;-33.992;18.480;2023-02-01T18:02:40;7.35;;;1.88;;
37379;SDS011;23252;-33.992;18.480;2023-02-01T18:05:14;9.57;;;1.67;;
37379;SDS011;23252;-33.992;18.480;2023-02-01T18:07:41;11.05;;;2.33;;
37379;SDS011;23252;-33.992;18.480;2023-02-01T18:10:08;9.43;;;1.83;;
37379;SDS011;23252;-33.992;18.480;2023-02-01T20:13:24;16.20;;;2.35;;
37379;SDS011;23252;-33.992;18.480;2023-02-01T20:15:55;11.18;;;1.95;;
37379;SDS011;23252;-33.992;18.480;2023-02-01T20:18:22;9.52;;;2.15;;
37379;SDS011;23252;-33.992;18.480;2023-02-01T20:20:49;7.85;;;1.50;;
37379;SDS011;23252;-33.992;18.480;2023-02-01T20:23:19;16.63;;;1.98;;
37379;SDS011;23252;-33.992;18.480;2023-02-01T20:25:46;13.73;;;2.10;;
37379;SDS011;23252;-33.992;18.480;2023-02-01T20:28:12;10.77;;;1.65;;
37379;SDS011;23252;-33.992;18.480;2023-02-01T20:30:39;7.93;;;1.40;;
37379;SDS011;23252;-33.992;18.480;2023-02-01T20:33:08;15.77;;;1.65;;
37379;SDS011;23252;-33.992;18.480;2023-02-01T20:35:34;16.83;;;1.67;;
37379;SDS011;23252;-33.992;18.480;2023-02-01T20:38:01;11.90;;;1.60;;
37379;SDS011;23252;-33.992;18.480;2023-02-01T20:40:28;11.93;;;2.00;;
37379;SDS011;23252;-33.992;18.480;2023-02-01T20:42:55;14.18;;;1.77;;
37379;SDS011;23252;-33.992;18.480;2023-02-01T20:45:22;15.82;;;1.65;;
37379;SDS011;23252;-33.992;18.480;2023-02-01T20:47:49;10.57;;;1.25;;
37379;SDS011;23252;-33.992;18.480;2023-02-01T20:50:19;11.15;;;1.70;;
37379;SDS011;23252;-33.992;18.480;2023-02-01T20:52:45;11.07;;;1.27;;
37379;SDS011;23252;-33.992;18.480;2023-02-01T20:55:12;15.15;;;1.55;;
37379;SDS011;23252;-33.992;18.480;2023-02-01T20:57:38;18.85;;;1.80;;
37379;SDS011;23252;-33.992;18.480;2023-02-01T21:00:05;13.98;;;2.00;;
37379;SDS011;23252;-33.992;18.480;2023-02-01T21:02:34;13.55;;;2.05;;
37379;SDS011;23252;-33.992;18.480;2023-02-01T21:05:01;12.35;;;1.48;;
37379;SDS011;23252;-33.992;18.480;2023-02-01T21:07:27;12.05;;;2.20;;
37379;SDS011;23252;-33.992;18.480;2023-02-01T21:09:54;14.60;;;1.40;;
37379;SDS011;23252;-33.992;18.480;2023-02-01T21:12:21;8.88;;;1.50;;
37379;SDS011;23252;-33.992;18.480;2023-02-01T21:14:48;13.32;;;1.67;;
37379;SDS011;23252;-33.992;18.480;2023-02-01T21:17:14;6.93;;;1.50;;
37379;SDS011;23252;-33.992;18.480;2023-02-01T21:19:41;16.48;;;1.95;;
37379;SDS011;23252;-33.992;18.480;2023-02-01T21:22:08;19.42;;;2.15;;
37379;SDS011;23252;-33.992;18.480;2023-02-01T21:24:35;9.93;;;1.80;;
37379;SDS011;23252;-33.992;18.480;2023-02-01T21:27:01;12.88;;;1.88;;
37379;SDS011;23252;-33.992;18.480;2023-02-01T21:29:28;8.55;;;1.52;;
37379;SDS011;23252;-33.992;18.480;2023-02-01T21:31:56;8.73;;;1.73;;
37379;SDS011;23252;-33.992;18.480;2023-02-01T21:34:23;12.00;;;1.67;;
37379;SDS011;23252;-33.992;18.480;2023-02-01T21:36:49;8.80;;;1.48;;
37379;SDS011;23252;-33.992;18.480;2023-02-01T21:39:16;13.13;;;1.52;;
37379;SDS011;23252;-33.992;18.480;2023-02-01T21:41:43;7.68;;;1.63;;
37379;SDS011;23252;-33.992;18.480;2023-02-01T21:44:28;12.35;;;2.05;;
37379;SDS011;23252;-33.992;18.480;2023-02-01T21:46:54;12.45;;;1.20;;
37379;SDS011;23252;-33.992;18.480;2023-02-01T21:49:21;11.80;;;1.58;;
37379;SDS011;23252;-33.992;18.480;2023-02-01T21:51:50;5.95;;;1.10;;
37379;SDS011;23252;-33.992;18.480;2023-02-01T21:54:17;8.20;;;1.17;;
37379;SDS011;23252;-33.992;18.480;2023-02-01T21:56:43;4.80;;;1.00;;
37379;SDS011;23252;-33.992;18.480;2023-02-01T21:59:10;6.25;;;0.90;;
37379;SDS011;23252;-33.992;18.480;2023-02-01T22:01:37;5.90;;;1.50;;
37379;SDS011;23252;-33.992;18.480;2023-02-01T22:04:05;6.93;;;1.48;;
37379;SDS011;23252;-33.992;18.480;2023-02-01T22:08:59;11.68;;;2.08;;
37379;SDS011;23252;-33.992;18.480;2023-02-01T22:11:26;7.95;;;1.52;;
37379;SDS011;23252;-33.992;18.480;2023-02-01T22:13:53;10.38;;;1.92;;
37379;SDS011;23252;-33.992;18.480;2023-02-01T22:16:20;8.48;;;1.30;;
37379;SDS011;23252;-33.992;18.480;2023-02-01T22:21:14;3.30;;;0.68;;
37379;SDS011;23252;-33.992;18.480;2023-02-01T22:23:41;4.63;;;0.90;;
37379;SDS011;23252;-33.992;18.480;2023-02-01T22:26:08;7.90;;;1.35;;
37379;SDS011;23252;-33.992;18.480;2023-02-01T22:28:38;8.20;;;1.92;;
37379;SDS011;23252;-33.992;18.480;2023-02-01T22:31:05;9.35;;;2.00;;
37379;SDS011;23252;-33.992;18.480;2023-02-01T22:33:34;6.60;;;1.17;;
37379;SDS011;23252;-33.992;18.480;2023-02-01T22:36:01;6.88;;;1.50;;
37379;SDS011;23252;-33.992;18.480;2023-02-01T22:38:29;11.43;;;2.08;;
37379;SDS011;23252;-33.992;18.480;2023-02-01T22:40:57;8.55;;;1.65;;
37379;SDS011;23252;-33.992;18.480;2023-02-01T22:43:26;15.23;;;1.60;;
37379;SDS011;23252;-33.992;18.480;2023-02-01T22:45:53;11.65;;;1.30;;
37379;SDS011;23252;-33.992;18.480;2023-02-01T22:48:23;13.30;;;1.85;;
37379;SDS011;23252;-33.992;18.480;2023-02-01T22:50:49;9.68;;;1.33;;
37379;SDS011;23252;-33.992;18.480;2023-02-01T22:53:16;10.93;;;1.60;;
37379;SDS011;23252;-33.992;18.480;2023-02-01T22:55:44;9.55;;;1.80;;
37379;SDS011;23252;-33.992;18.480;2023-02-01T22:58:10;8.32;;;1.00;;
37379;SDS011;23252;-33.992;18.480;2023-02-01T23:00:37;6.93;;;1.30;;
37379;SDS011;23252;-33.992;18.480;2023-02-01T23:03:05;8.40;;;1.55;;
37379;SDS011;23252;-33.992;18.480;2023-02-01T23:05:31;10.50;;;1.35;;
37379;SDS011;23252;-33.992;18.480;2023-02-01T23:07:58;6.50;;;1.00;;
37379;SDS011;23252;-33.992;18.480;2023-02-01T23:10:24;8.38;;;1.45;;
37379;SDS011;23252;-33.992;18.480;2023-02-01T23:12:51;12.57;;;1.67;;
37379;SDS011;23252;-33.992;18.480;2023-02-01T23:15:17;8.63;;;1.38;;
37379;SDS011;23252;-33.992;18.480;2023-02-01T23:17:44;12.35;;;1.45;;
37379;SDS011;23252;-33.992;18.480;2023-02-01T23:20:16;12.32;;;1.73;;
37379;SDS011;23252;-33.992;18.480;2023-02-01T23:22:44;13.80;;;1.50;;
37379;SDS011;23252;-33.992;18.480;2023-02-01T23:25:14;10.05;;;1.55;;
37379;SDS011;23252;-33.992;18.480;2023-02-01T23:27:42;9.20;;;1.60;;
37379;SDS011;23252;-33.992;18.480;2023-02-01T23:30:09;9.07;;;1.60;;
37379;SDS011;23252;-33.992;18.480;2023-02-01T23:35:03;8.13;;;1.30;;
37379;SDS011;23252;-33.992;18.480;2023-02-01T23:37:30;7.25;;;1.20;;
37379;SDS011;23252;-33.992;18.480;2023-02-01T23:39:56;11.13;;;1.10;;
37379;SDS011;23252;-33.992;18.480;2023-02-01T23:42:23;7.13;;;1.48;;
37379;SDS011;23252;-33.992;18.480;2023-02-01T23:44:49;9.82;;;1.52;;
37379;SDS011;23252;-33.992;18.480;2023-02-01T23:47:16;12.77;;;1.65;;
37379;SDS011;23252;-33.992;18.480;2023-02-01T23:49:42;11.40;;;2.27;;
37379;SDS011;23252;-33.992;18.480;2023-02-01T23:52:09;7.45;;;1.17;;
37379;SDS011;23252;-33.992;18.480;2023-02-01T23:54:36;12.15;;;2.00;;
37379;SDS011;23252;-33.992;18.480;2023-02-01T23:57:02;11.25;;;1.35;;
37379;SDS011;23252;-33.992;18.480;2023-02-01T23:59:29;9.05;;;1.00;;
